Time;durP1;ratioP1;P1;durP2;ratioP2;P2;SDS_P1;SDS_P2;PMS_P1;PMS_P2;Temp;Humidity;BMP_temperature;BMP_pressure;BME280_temperature;BME280_humidity;BME280_pressure;Samples;Min_cycle;Max_cycle;Signal;HPM_P1;HPM_P2
2022/05/01 00:00:28;;;;;;;4.6;4.2;;;;;;;9.94;90.39355;940.8386;;;;
2022/05/01 00:02:58;;;;;;;5;4.3;;;;;;;9.9;90.5459;940.8516;;;;
2022/05/01 00:05:23;;;;;;;4.9;4.4;;;;;;;9.92;90.41309;940.8304;;;;
2022/05/01 00:07:52;;;;;;;6.1;3.9;;;;;;;9.91;90.11621;940.7897;;;;
2022/05/01 00:10:17;;;;;;;4.2;3.8;;;;;;;9.73;91.05664;940.8453;;;;
2022/05/01 00:12:46;;;;;;;4.8;3.6;;;;;;;9.64;91.01465;940.7642;;;;
2022/05/01 00:15:11;;;;;;;3.9;3.5;;;;;;;9.57;91.35254;940.7922;;;;
2022/05/01 00:17:39;;;;;;;3.8;3.3;;;;;;;9.57;91.66016;940.8272;;;;
2022/05/01 00:20:04;;;;;;;3.6;3.3;;;;;;;9.59;91.56348;940.7806;;;;
2022/05/01 00:22:33;;;;;;;3.4;3.1;;;;;;;9.66;91.18945;940.8139;;;;
2022/05/01 00:24:58;;;;;;;3.6;3.2;;;;;;;9.73;90.99023;940.7635;;;;
2022/05/01 00:27:26;;;;;;;4;3.4;;;;;;;9.75;91.08301;940.7685;;;;
2022/05/01 00:29:51;;;;;;;3.2;2.9;;;;;;;9.75;90.85547;940.7963;;;;
2022/05/01 00:32:19;;;;;;;3.6;3.3;;;;;;;9.85;90.52344;940.7123;;;;
2022/05/01 00:37:27;;;;;;;3.5;3.2;;;;;;;9.81;90.6748;940.7205;;;;
2022/05/01 00:43:31;;;;;;;3.7;3.4;;;;;;;9.75;90.96973;940.7335;;;;
2022/05/01 00:45:58;;;;;;;4;3.6;;;;;;;9.76;91.0166;940.7885;;;;
2022/05/01 00:48:28;;;;;;;4.9;4;;;;;;;9.77;90.55176;940.8015;;;;
2022/05/01 00:50:53;;;;;;;4.4;3.7;;;;;;;9.76;90.49414;940.7505;;;;
2022/05/01 00:53:19;;;;;;;5.2;3.9;;;;;;;9.75;90.40137;940.6923;;;;
2022/05/01 00:55:44;;;;;;;4.2;3.8;;;;;;;9.68;91.14746;940.6838;;;;
2022/05/01 00:58:12;;;;;;;4.4;4;;;;;;;9.7;91.18555;940.7366;;;;
2022/05/01 01:00:37;;;;;;;5;3.9;;;;;;;9.7;91.47266;940.7629;;;;
2022/05/01 01:03:05;;;;;;;4.8;3.9;;;;;;;9.7;91.76758;940.7366;;;;
2022/05/01 01:05:38;;;;;;;4.4;4;;;;;;;9.74;91.51465;940.7166;;;;
2022/05/01 01:08:06;;;;;;;5.2;3.8;;;;;;;9.73;91.2168;940.6926;;;;
2022/05/01 01:10:31;;;;;;;4.5;3.5;;;;;;;9.63;91.71973;940.6942;;;;
2022/05/01 01:12:58;;;;;;;4.1;3.1;;;;;;;9.69;91.58496;940.7469;;;;
2022/05/01 01:15:24;;;;;;;3.7;3.3;;;;;;;9.72;91.46484;940.7648;;;;
2022/05/01 01:17:52;;;;;;;4.1;3.5;;;;;;;9.71;91.18945;940.7567;;;;
2022/05/01 01:20:19;;;;;;;4.4;3.9;;;;;;;9.68;91.21777;940.7316;;;;
2022/05/01 01:22:45;;;;;;;4.4;3.9;;;;;;;9.66;91.33789;940.759;;;;
2022/05/01 01:25:16;;;;;;;4.2;3.8;;;;;;;9.68;91.14746;940.6942;;;;
2022/05/01 01:27:46;;;;;;;5.4;4.1;;;;;;;9.69;91.07227;940.7453;;;;
2022/05/01 01:32:47;;;;;;;6.1;4.6;;;;;;;9.63;91.21777;940.6791;;;;
2022/05/01 01:35:26;;;;;;;4.7;4.3;;;;;;;9.69;91.63965;940.6682;;;;
2022/05/01 01:37:52;;;;;;;4.4;3.9;;;;;;;9.68;91.50098;940.6322;;;;
2022/05/01 01:40:22;;;;;;;4.4;4;;;;;;;9.65;91.56348;940.6309;;;;
2022/05/01 01:43:02;;;;;;;4.4;4;;;;;;;9.66;91.47461;940.6247;;;;
2022/05/01 01:45:28;;;;;;;5.1;4.5;;;;;;;9.66;91.69336;940.5715;;;;
2022/05/01 01:47:52;;;;;;;4.9;4.4;;;;;;;9.63;91.78809;940.5574;;;;
2022/05/01 01:50:19;;;;;;;5.2;4.2;;;;;;;9.58;92.12012;940.5532;;;;
2022/05/01 01:52:48;;;;;;;4.6;4.1;;;;;;;9.64;91.70996;940.5122;;;;
2022/05/01 01:55:15;;;;;;;5.5;3.9;;;;;;;9.64;91.70996;940.5623;;;;
2022/05/01 01:57:40;;;;;;;4.9;4;;;;;;;9.62;91.83105;940.5708;;;;
2022/05/01 02:00:13;;;;;;;6.1;4.1;;;;;;;9.62;91.97754;940.5779;;;;
2022/05/01 02:02:40;;;;;;;5;4.1;;;;;;;9.67;92.28516;940.535;;;;
2022/05/01 02:05:06;;;;;;;4.9;4.1;;;;;;;9.68;92.17383;940.5542;;;;
2022/05/01 02:07:36;;;;;;;5.9;4.2;;;;;;;9.69;91.9834;940.4208;;;;
2022/05/01 02:10:05;;;;;;;5.3;4.8;;;;;;;9.68;92.12793;940.5439;;;;
2022/05/01 02:13:43;;;;;;;5.2;4.6;;;;;;;9.73;91.94531;940.5168;;;;
2022/05/01 02:16:17;;;;;;;3.7;3.4;;;;;;;9.73;91.62695;940.493;;;;
2022/05/01 02:18:41;;;;;;;3.3;3;;;;;;;9.73;91.69531;940.435;;;;
2022/05/01 02:23:35;;;;;;;4.8;4.2;;;;;;;9.73;91.68555;940.4963;;;;
2022/05/01 02:26:03;;;;;;;4.6;4;;;;;;;9.81;91.51855;940.4553;;;;
2022/05/01 02:28:28;;;;;;;3.5;3.2;;;;;;;9.86;91.3916;940.4412;;;;
2022/05/01 02:30:55;;;;;;;5.1;4.6;;;;;;;9.82;91.36035;940.4733;;;;
2022/05/01 02:33:20;;;;;;;5.3;4.6;;;;;;;9.89;91.06836;940.3519;;;;
2022/05/01 02:35:46;;;;;;;6.4;5.6;;;;;;;9.86;90.75488;940.408;;;;
2022/05/01 02:38:16;;;;;;;6.9;6;;;;;;;9.91;90.44531;940.3976;;;;
2022/05/01 02:40:41;;;;;;;7.3;6.5;;;;;;;9.79;90.69434;940.4089;;;;
2022/05/01 02:43:09;;;;;;;7.8;6.4;;;;;;;9.76;90.85742;940.4036;;;;
2022/05/01 02:45:34;;;;;;;7.3;6.6;;;;;;;9.78;90.77148;940.4279;;;;
2022/05/01 02:48:04;;;;;;;8.7;7.6;;;;;;;9.72;91.08887;940.4141;;;;
2022/05/01 02:50:29;;;;;;;9.1;7.9;;;;;;;9.72;90.80371;940.4222;;;;
2022/05/01 02:52:59;;;;;;;8.9;8;;;;;;;9.54;90.40137;940.4228;;;;
2022/05/01 02:55:29;;;;;;;10;9;;;;;;;9.63;90.72852;940.3943;;;;
2022/05/01 02:57:54;;;;;;;9.6;8.4;;;;;;;9.66;90.41504;940.4283;;;;
2022/05/01 03:01:24;;;;;;;8.6;7.6;;;;;;;9.72;90.16602;940.3625;;;;
2022/05/01 03:03:53;;;;;;;12.6;9.3;;;;;;;9.62;90.0752;940.4221;;;;
2022/05/01 03:06:18;;;;;;;10.4;9.2;;;;;;;9.33;90.58594;940.3953;;;;
2022/05/01 03:09:14;;;;;;;12.4;9.4;;;;;;;9.32;91.43555;940.3934;;;;
2022/05/01 03:11:43;;;;;;;11.7;10.1;;;;;;;9.45;90.96387;940.4039;;;;
2022/05/01 03:14:09;;;;;;;11.7;10.5;;;;;;;9.51;90.6123;940.428;;;;
2022/05/01 03:16:33;;;;;;;11.6;10.1;;;;;;;9.58;90.0791;940.3567;;;;
2022/05/01 03:23:50;;;;;;;12;10.5;;;;;;;9.56;89.42773;940.3254;;;;
2022/05/01 03:26:21;;;;;;;12.8;10.3;;;;;;;9.56;89.50586;940.35;;;;
2022/05/01 03:28:52;;;;;;;13.3;10.6;;;;;;;9.58;89.57715;940.3448;;;;
2022/05/01 03:31:20;;;;;;;11.5;10.3;;;;;;;9.64;89.29492;940.3628;;;;
2022/05/01 03:33:45;;;;;;;13.7;10.4;;;;;;;9.65;89.30566;940.3414;;;;
2022/05/01 03:36:17;;;;;;;12.8;10.9;;;;;;;9.65;89.35352;940.347;;;;
2022/05/01 03:38:49;;;;;;;12.7;10.9;;;;;;;9.66;89.19727;940.3433;;;;
2022/05/01 03:41:14;;;;;;;11.5;10;;;;;;;9.66;88.5459;940.2375;;;;
2022/05/01 03:44:40;;;;;;;13.4;11.1;;;;;;;9.6;89.17285;940.2999;;;;
2022/05/01 03:47:02;;;;;;;12.6;10.9;;;;;;;9.56;89.89258;940.3262;;;;
2022/05/01 03:49:34;;;;;;;13.1;11;;;;;;;9.58;89.68164;940.3044;;;;
2022/05/01 03:55:42;;;;;;;14.3;12;;;;;;;9.38;90.87988;940.334;;;;
2022/05/01 03:58:13;;;;;;;15.1;12.5;;;;;;;9.33;90.92773;940.3444;;;;
2022/05/01 04:02:34;;;;;;;15;12.2;;;;;;;9.34;91.17969;940.3382;;;;
2022/05/01 04:04:59;;;;;;;14.5;12.5;;;;;;;9.28;91.27051;940.3467;;;;
2022/05/01 04:07:24;;;;;;;14.5;12.7;;;;;;;9.31;91.27637;940.3972;;;;
2022/05/01 04:13:30;;;;;;;15.5;13.4;;;;;;;9.41;90.92188;940.3452;;;;
2022/05/01 04:15:59;;;;;;;15.9;12.7;;;;;;;9.47;90.72852;940.3318;;;;
2022/05/01 04:18:31;;;;;;;15.9;13.2;;;;;;;9.48;90.60645;940.3289;;;;
2022/05/01 04:20:54;;;;;;;15.6;12.8;;;;;;;9.29;91.31836;940.3636;;;;
2022/05/01 04:23:22;;;;;;;15.3;13;;;;;;;9.38;91.43848;940.3427;;;;
2022/05/01 04:25:47;;;;;;;15.9;12.7;;;;;;;9.37;91.42285;940.3855;;;;
2022/05/01 04:28:16;;;;;;;16;12.8;;;;;;;9.35;91.70313;940.374;;;;
2022/05/01 04:30:41;;;;;;;15.2;13.2;;;;;;;9.31;91.75488;940.3948;;;;
2022/05/01 04:33:39;;;;;;;16.4;12.7;;;;;;;9.39;91.72656;940.4074;;;;
2022/05/01 04:36:09;;;;;;;16.3;13.1;;;;;;;9.45;91.84082;940.4436;;;;
2022/05/01 04:38:42;;;;;;;16.7;14;;;;;;;9.47;91.84473;940.4814;;;;
2022/05/01 04:41:07;;;;;;;15.7;13.3;;;;;;;9.45;91.68066;940.4659;;;;
2022/05/01 04:43:40;;;;;;;16.6;12.8;;;;;;;9.35;92.26172;940.4774;;;;
2022/05/01 04:46:04;;;;;;;15.9;12.3;;;;;;;9.28;92.2959;940.4508;;;;
2022/05/01 04:48:35;;;;;;;15.2;12.4;;;;;;;9.07;93.55762;940.4426;;;;
2022/05/01 04:51:00;;;;;;;13.4;11.7;;;;;;;9.27;93.09961;940.4672;;;;
2022/05/01 04:53:30;;;;;;;15;11.2;;;;;;;9.19;93.11621;940.456;;;;
2022/05/01 04:59:35;;;;;;;12.3;10.5;;;;;;;9.06;94.02246;940.5078;;;;
2022/05/01 05:02:08;;;;;;;11.8;10.3;;;;;;;9.15;93.99609;940.5228;;;;
2022/05/01 05:04:37;;;;;;;12.2;10.1;;;;;;;9.24;93.3877;940.5206;;;;
2022/05/01 05:07:02;;;;;;;12.5;10.5;;;;;;;9.35;93.18555;940.5609;;;;
2022/05/01 05:15:20;;;;;;;11;9.7;;;;;;;9.54;90.86914;940.5786;;;;
2022/05/01 05:17:45;;;;;;;13.5;10.8;;;;;;;9.6;90.51563;940.5812;;;;
2022/05/01 05:20:18;;;;;;;13.1;11.1;;;;;;;9.63;90.31836;940.5717;;;;
2022/05/01 05:22:47;;;;;;;12.9;11;;;;;;;9.71;89.7334;940.5803;;;;
2022/05/01 05:25:19;;;;;;;14;11.8;;;;;;;9.7;88.88379;940.6221;;;;
2022/05/01 05:27:54;;;;;;;14.7;11.2;;;;;;;9.76;88.81934;940.6241;;;;
2022/05/01 05:30:26;;;;;;;12.6;11.1;;;;;;;9.79;88.7998;940.731;;;;
2022/05/01 05:33:00;;;;;;;13.6;11.5;;;;;;;9.79;88.48047;940.6545;;;;
2022/05/01 05:35:25;;;;;;;14.3;12;;;;;;;9.74;88.57422;940.7047;;;;
2022/05/01 05:37:56;;;;;;;13.5;11.7;;;;;;;9.72;89.08301;940.7084;;;;
2022/05/01 05:40:22;;;;;;;14.9;12.4;;;;;;;9.69;89.5791;940.7183;;;;
2022/05/01 05:42:52;;;;;;;14.7;12;;;;;;;9.7;89.77441;940.6708;;;;
2022/05/01 05:45:18;;;;;;;15.2;12.9;;;;;;;9.7;89.93262;940.7327;;;;
2022/05/01 05:47:48;;;;;;;15.2;13.4;;;;;;;9.62;90.59863;940.7845;;;;
2022/05/01 05:54:06;;;;;;;16.6;13.8;;;;;;;9.72;90.14355;940.7371;;;;
2022/05/01 05:56:31;;;;;;;18.3;14;;;;;;;9.66;90.49512;940.829;;;;
2022/05/01 05:58:59;;;;;;;16.6;13.6;;;;;;;9.65;90.53809;940.7708;;;;
2022/05/01 06:01:24;;;;;;;16.1;13.5;;;;;;;9.58;90.8418;940.7932;;;;
2022/05/01 06:03:54;;;;;;;17;14;;;;;;;9.62;90.72461;940.8466;;;;
2022/05/01 06:19:18;;;;;;;17;13.8;;;;;;;9.8;90.60254;940.8965;;;;
2022/05/01 06:21:43;;;;;;;15.2;12.8;;;;;;;9.77;91.15527;940.9176;;;;
2022/05/01 06:24:08;;;;;;;16.1;12.9;;;;;;;9.86;90.85547;940.9583;;;;
2022/05/01 06:26:33;;;;;;;14.2;11.9;;;;;;;9.79;88.3916;940.8789;;;;
2022/05/01 06:29:04;;;;;;;13;10.7;;;;;;;9.74;88.76758;940.9933;;;;
2022/05/01 06:31:29;;;;;;;12;10.6;;;;;;;9.79;88.33301;940.9441;;;;
2022/05/01 06:33:58;;;;;;;12.2;10.9;;;;;;;9.77;87.57715;940.9398;;;;
2022/05/01 06:36:23;;;;;;;14.6;12.2;;;;;;;9.82;87.82715;940.9543;;;;
2022/05/01 06:38:52;;;;;;;13.9;11.3;;;;;;;9.88;87.65625;940.9213;;;;
2022/05/01 06:41:21;;;;;;;13.9;11.3;;;;;;;9.95;87.12305;940.9614;;;;
2022/05/01 06:43:46;;;;;;;13.1;11.7;;;;;;;10;87.04297;940.8666;;;;
2022/05/01 06:46:16;;;;;;;13.9;11.2;;;;;;;9.98;87.51855;940.9802;;;;
2022/05/01 06:48:46;;;;;;;13.1;11;;;;;;;10.08;87.20605;940.9708;;;;
2022/05/01 06:51:11;;;;;;;12.5;10.9;;;;;;;10.11;86.2207;940.9506;;;;
2022/05/01 06:53:40;;;;;;;11.5;10.2;;;;;;;10.18;85.37793;940.9564;;;;
2022/05/01 06:57:03;;;;;;;11.8;10;;;;;;;10.24;85.27832;940.9603;;;;
2022/05/01 06:59:33;;;;;;;12.8;10.7;;;;;;;10.28;85.44434;940.9227;;;;
2022/05/01 07:01:58;;;;;;;12.2;10;;;;;;;10.36;85.25391;940.9716;;;;
2022/05/01 07:04:28;;;;;;;13.1;10.7;;;;;;;10.39;84.99609;941.0117;;;;
2022/05/01 07:06:53;;;;;;;12;10.6;;;;;;;10.42;85.54004;941.0237;;;;
2022/05/01 07:09:24;;;;;;;12.7;10.9;;;;;;;10.42;86.61328;941.0149;;;;
2022/05/01 07:11:54;;;;;;;13.9;11.6;;;;;;;10.49;85.96484;940.9531;;;;
2022/05/01 07:14:24;;;;;;;13.7;11.4;;;;;;;10.55;85.20117;940.981;;;;
2022/05/01 07:16:49;;;;;;;11.2;10;;;;;;;10.66;85.37109;941.0337;;;;
2022/05/01 07:27:52;;;;;;;12.1;10.5;;;;;;;11;84.72852;940.9235;;;;
2022/05/01 07:30:18;;;;;;;11.7;10.3;;;;;;;;;;;;;
2022/05/01 07:32:43;;;;;;;12.3;11;;;;;;;;;;;;;
2022/05/01 07:35:09;;;;;;;11.8;10.2;;;;;;;;;;;;;
2022/05/01 07:37:34;;;;;;;12.7;11.1;;;;;;;;;;;;;
2022/05/01 07:40:01;;;;;;;12;10.7;;;;;;;;;;;;;
2022/05/01 07:42:25;;;;;;;11.6;10.4;;;;;;;;;;;;;
2022/05/01 07:44:51;;;;;;;10.9;9.8;;;;;;;;;;;;;
2022/05/01 07:47:16;;;;;;;10.8;9.5;;;;;;;;;;;;;
2022/05/01 07:49:43;;;;;;;11;9.8;;;;;;;;;;;;;
2022/05/01 07:52:09;;;;;;;9.7;8.6;;;;;;;;;;;;;
2022/05/01 07:54:34;;;;;;;9.7;8.2;;;;;;;;;;;;;
2022/05/01 07:56:59;;;;;;;8.1;7.1;;;;;;;;;;;;;
2022/05/01 07:59:25;;;;;;;10.6;8;;;;;;;;;;;;;
2022/05/01 08:01:50;;;;;;;7.4;6.4;;;;;;;;;;;;;
2022/05/01 08:04:31;;;;;;;7.4;6.5;;;;;;;;;;;;;
2022/05/01 08:06:40;;;;;;;7.2;6.5;;;;;;;;;;;;;
2022/05/01 08:09:06;;;;;;;6.2;5.3;;;;;;;;;;;;;
2022/05/01 08:11:31;;;;;;;6.6;5.8;;;;;;;;;;;;;
2022/05/01 08:13:57;;;;;;;5.7;5.1;;;;;;;;;;;;;
2022/05/01 08:16:22;;;;;;;5.7;4.3;;;;;;;;;;;;;
2022/05/01 08:21:12;;;;;;;5;4.5;;;;;;;;;;;;;
2022/05/01 08:23:39;;;;;;;5;4.4;;;;;;;;;;;;;
2022/05/01 08:26:06;;;;;;;5;4.5;;;;;;;;;;;;;
2022/05/01 08:28:31;;;;;;;5.4;4.8;;;;;;;;;;;;;
2022/05/01 08:30:56;;;;;;;4.4;4;;;;;;;;;;;;;
2022/05/01 08:33:23;;;;;;;3.5;3;;;;;;;;;;;;;
2022/05/01 08:35:49;;;;;;;3;2.2;;;;;;;;;;;;;
2022/05/01 08:38:13;;;;;;;2.9;2.7;;;;;;;;;;;;;
2022/05/01 08:40:38;;;;;;;3;2.7;;;;;;;;;;;;;
2022/05/01 08:43:05;;;;;;;2.1;1.9;;;;;;;;;;;;;
2022/05/01 08:45:30;;;;;;;3.3;2;;;;;;;;;;;;;
2022/05/01 08:47:55;;;;;;;3;2;;;;;;;;;;;;;
2022/05/01 08:50:21;;;;;;;1.9;1.7;;;;;;;;;;;;;
2022/05/01 08:52:46;;;;;;;2.1;1.9;;;;;;;;;;;;;
2022/05/01 08:55:11;;;;;;;2.8;2.4;;;;;;;;;;;;;
2022/05/01 08:57:37;;;;;;;2.3;2.1;;;;;;;;;;;;;
2022/05/01 09:00:05;;;;;;;2.8;2.2;;;;;;;;;;;;;
2022/05/01 09:02:27;;;;;;;2.2;2;;;;;;;;;;;;;
2022/05/01 09:04:53;;;;;;;2.4;2.2;;;;;;;;;;;;;
2022/05/01 09:07:18;;;;;;;2.2;1.9;;;;;;;;;;;;;
2022/05/01 09:09:44;;;;;;;2.2;2;;;;;;;;;;;;;
2022/05/01 09:14:35;;;;;;;2.6;2.4;;;;;;;;;;;;;
2022/05/01 09:17:01;;;;;;;2.8;2.6;;;;;;;;;;;;;
2022/05/01 09:19:26;;;;;;;3.3;2.6;;;;;;;;;;;;;
2022/05/01 09:21:53;;;;;;;2.8;2.6;;;;;;;;;;;;;
2022/05/01 09:24:17;;;;;;;2.3;1.8;;;;;;;;;;;;;
2022/05/01 09:26:43;;;;;;;2.1;1.9;;;;;;;;;;;;;
2022/05/01 09:29:08;;;;;;;3.2;2.2;;;;;;;;;;;;;
2022/05/01 09:31:35;;;;;;;2.3;2.1;;;;;;;;;;;;;
2022/05/01 09:34:00;;;;;;;3;2.7;;;;;;;;;;;;;
2022/05/01 09:36:27;;;;;;;2.2;2;;;;;;;;;;;;;
2022/05/01 09:38:52;;;;;;;3;2;;;;;;;;;;;;;
2022/05/01 09:41:17;;;;;;;2.4;2.2;;;;;;;;;;;;;
2022/05/01 09:43:43;;;;;;;3;2.6;;;;;;;;;;;;;
2022/05/01 09:46:08;;;;;;;4.1;3.2;;;;;;;;;;;;;
2022/05/01 09:48:33;;;;;;;2.8;2.6;;;;;;;;;;;;;
2022/05/01 09:50:58;;;;;;;2.7;2.5;;;;;;;;;;;;;
2022/05/01 09:53:26;;;;;;;3;2.7;;;;;;;;;;;;;
2022/05/01 09:55:51;;;;;;;3.5;3.2;;;;;;;;;;;;;
2022/05/01 09:58:17;;;;;;;4;3.6;;;;;;;;;;;;;
2022/05/01 10:00:40;;;;;;;4.5;3.9;;;;;;;;;;;;;
2022/05/01 10:03:05;;;;;;;4.3;3.9;;;;;;;;;;;;;
2022/05/01 10:05:32;;;;;;;5.9;5;;;;;;;;;;;;;
2022/05/01 10:07:57;;;;;;;5.7;5.1;;;;;;;;;;;;;
2022/05/01 10:10:23;;;;;;;6;5.2;;;;;;;;;;;;;
2022/05/01 10:12:48;;;;;;;6.7;5.9;;;;;;;;;;;;;
2022/05/01 10:15:14;;;;;;;6.5;5.8;;;;;;;;;;;;;
2022/05/01 10:17:39;;;;;;;6.4;5.8;;;;;;;;;;;;;
2022/05/01 10:20:04;;;;;;;7;6.2;;;;;;;;;;;;;
2022/05/01 10:22:29;;;;;;;7.7;6.9;;;;;;;;;;;;;
2022/05/01 10:24:55;;;;;;;7.6;6.8;;;;;;;;;;;;;
2022/05/01 10:27:20;;;;;;;6.9;6;;;;;;;;;;;;;
2022/05/01 10:32:21;;;;;;;7.5;6.7;;;;;;;;;;;;;
2022/05/01 10:32:22;;;;;;;8;7.2;;;;;;;;;;;;;
2022/05/01 10:34:36;;;;;;;9.3;7.2;;;;;;;;;;;;;
2022/05/01 10:37:01;;;;;;;9.7;7;;;;;;;;;;;;;
2022/05/01 10:39:26;;;;;;;7.9;6.8;;;;;;;;;;;;;
2022/05/01 10:41:51;;;;;;;9.6;7.7;;;;;;;;;;;;;
2022/05/01 10:44:16;;;;;;;9.4;7.4;;;;;;;;;;;;;
2022/05/01 10:46:41;;;;;;;8.5;7.5;;;;;;;;;;;;;
2022/05/01 10:49:08;;;;;;;8.1;7.1;;;;;;;;;;;;;
2022/05/01 10:51:34;;;;;;;9;7.2;;;;;;;;;;;;;
2022/05/01 10:53:59;;;;;;;9.8;7.5;;;;;;;;;;;;;
2022/05/01 10:56:26;;;;;;;9.2;7.5;;;;;;;;;;;;;
2022/05/01 10:58:49;;;;;;;8.6;7.6;;;;;;;;;;;;;
2022/05/01 11:01:14;;;;;;;9.3;7.6;;;;;;;;;;;;;
2022/05/01 11:03:40;;;;;;;8.3;7.5;;;;;;;;;;;;;
2022/05/01 11:06:04;;;;;;;9.3;7.4;;;;;;;;;;;;;
2022/05/01 11:08:29;;;;;;;10.6;7.8;;;;;;;;;;;;;
2022/05/01 11:10:56;;;;;;;8.6;7.4;;;;;;;;;;;;;
2022/05/01 11:13:19;;;;;;;7.5;6.7;;;;;;;;;;;;;
2022/05/01 11:15:47;;;;;;;7.3;6.4;;;;;;;;;;;;;
2022/05/01 11:18:11;;;;;;;7.9;7.1;;;;;;;;;;;;;
2022/05/01 11:20:38;;;;;;;7.9;6.8;;;;;;;;;;;;;
2022/05/01 11:23:03;;;;;;;8.7;7.4;;;;;;;;;;;;;
2022/05/01 11:25:30;;;;;;;7.6;6.5;;;;;;;;;;;;;
2022/05/01 11:27:54;;;;;;;8;6.6;;;;;;;;;;;;;
2022/05/01 11:30:22;;;;;;;7.4;5.9;;;;;;;;;;;;;
2022/05/01 11:32:44;;;;;;;8.6;6.5;;;;;;;;;;;;;
2022/05/01 11:35:17;;;;;;;8.6;7.1;;;;;;;;;;;;;
2022/05/01 11:37:39;;;;;;;8.6;7;;;;;;;;;;;;;
2022/05/01 11:40:09;;;;;;;8.5;6.9;;;;;;;;;;;;;
2022/05/01 11:42:34;;;;;;;7.8;6.8;;;;;;;;;;;;;
2022/05/01 11:45:01;;;;;;;8.8;7;;;;;;;;;;;;;
2022/05/01 11:47:25;;;;;;;7.7;6.9;;;;;;;;;;;;;
2022/05/01 11:49:53;;;;;;;7.4;6.3;;;;;;;;;;;;;
2022/05/01 11:52:18;;;;;;;7.5;6.7;;;;;;;;;;;;;
2022/05/01 11:54:45;;;;;;;7.1;6.4;;;;;;;;;;;;;
2022/05/01 12:04:26;;;;;;;7.6;6.4;;;;;;;;;;;;;
2022/05/01 12:06:56;;;;;;;7.7;6.3;;;;;;;;;;;;;
2022/05/01 12:09:21;;;;;;;7.7;6.7;;;;;;;;;;;;;
2022/05/01 12:11:49;;;;;;;8.2;6.8;;;;;;;;;;;;;
2022/05/01 12:14:14;;;;;;;8.1;6.9;;;;;;;;;;;;;
2022/05/01 12:16:41;;;;;;;7.7;6.2;;;;;;;;;;;;;
2022/05/01 12:19:06;;;;;;;7.6;6.6;;;;;;;;;;;;;
2022/05/01 12:21:32;;;;;;;7.6;6.6;;;;;;;;;;;;;
2022/05/01 12:23:56;;;;;;;9.2;6.5;;;;;;;;;;;;;
2022/05/01 12:26:21;;;;;;;7.9;6.9;;;;;;;;;;;;;
2022/05/01 12:28:46;;;;;;;7.5;6.7;;;;;;;;;;;;;
2022/05/01 12:31:16;;;;;;;8.3;7;;;;;;;;;;;;;
2022/05/01 12:33:39;;;;;;;8.6;7.7;;;;;;;;;;;;;
2022/05/01 12:36:04;;;;;;;9.1;7.3;;;;;;;;;;;;;
2022/05/01 12:38:30;;;;;;;8.9;7;;;;;;;;;;;;;
2022/05/01 12:45:46;;;;;;;8.9;7;;;;;;;;;;;;;
2022/05/01 12:48:11;;;;;;;7.7;6.9;;;;;;;;;;;;;
2022/05/01 12:50:38;;;;;;;8.1;6.5;;;;;;;;;;;;;
2022/05/01 12:53:02;;;;;;;8.1;6.8;;;;;;;;;;;;;
2022/05/01 12:55:28;;;;;;;9.4;6.7;;;;;;;;;;;;;
2022/05/01 12:57:56;;;;;;;8;6.6;;;;;;;;;;;;;
2022/05/01 13:00:22;;;;;;;8.8;6.8;;;;;;;;;;;;;
2022/05/01 13:02:48;;;;;;;7.4;6.7;;;;;;;;;;;;;
2022/05/01 13:05:13;;;;;;;8.8;6.6;;;;;;;;;;;;;
2022/05/01 13:07:42;;;;;;;7.3;6.6;;;;;;;;;;;;;
2022/05/01 13:10:06;;;;;;;7.5;6.7;;;;;;;;;;;;;
2022/05/01 13:12:34;;;;;;;8.5;7.2;;;;;;;;;;;;;
2022/05/01 13:15:02;;;;;;;8.5;7.2;;;;;;;;;;;;;
2022/05/01 13:17:27;;;;;;;8.2;6.9;;;;;;;;;;;;;
2022/05/01 13:19:49;;;;;;;7.9;7;;;;;;;;;;;;;
2022/05/01 13:22:16;;;;;;;8.9;6.8;;;;;;;;;;;;;
2022/05/01 13:24:42;;;;;;;9.6;6.9;;;;;;;;;;;;;
2022/05/01 13:27:06;;;;;;;8.1;6.5;;;;;;;;;;;;;
2022/05/01 13:29:31;;;;;;;7.3;6.4;;;;;;;;;;;;;
2022/05/01 13:31:59;;;;;;;8.1;6.6;;;;;;;;;;;;;
2022/05/01 13:34:23;;;;;;;8;6.9;;;;;;;;;;;;;
2022/05/01 13:36:48;;;;;;;9.1;6.6;;;;;;;;;;;;;
2022/05/01 13:39:13;;;;;;;9.1;6.6;;;;;;;;;;;;;
2022/05/01 13:46:31;;;;;;;6.9;6.2;;;;;;;;;;;;;
2022/05/01 13:48:57;;;;;;;7.5;6.7;;;;;;;;;;;;;
2022/05/01 13:51:23;;;;;;;7.2;6.3;;;;;;;;;;;;;
2022/05/01 13:53:48;;;;;;;7.9;6.2;;;;;;;;;;;;;
2022/05/01 13:56:15;;;;;;;7.2;6.2;;;;;;;;;;;;;
2022/05/01 13:58:39;;;;;;;8.6;6.5;;;;;;;;;;;;;
2022/05/01 14:01:05;;;;;;;7.7;6.3;;;;;;;;;;;;;
2022/05/01 14:03:30;;;;;;;8.9;6.8;;;;;;;;;;;;;
2022/05/01 14:05:56;;;;;;;8.8;7.3;;;;;;;;;;;;;
2022/05/01 14:08:21;;;;;;;8.7;6.9;;;;;;;;;;;;;
2022/05/01 14:10:47;;;;;;;9.2;6.8;;;;;;;;;;;;;
2022/05/01 14:13:13;;;;;;;9;7.4;;;;;;;;;;;;;
2022/05/01 14:15:41;;;;;;;12.1;9.9;;;;;;;;;;;;;
2022/05/01 14:18:06;;;;;;;9.7;8;;;;;;;;;;;;;
2022/05/01 14:20:31;;;;;;;10.4;7.5;;;;;;;;;;;;;
2022/05/01 14:22:56;;;;;;;8.9;7.2;;;;;;;;;;;;;
2022/05/01 14:25:22;;;;;;;10;7;;;;;;;;;;;;;
2022/05/01 14:27:48;;;;;;;8.7;7;;;;;;;;;;;;;
2022/05/01 14:30:15;;;;;;;8.2;6.4;;;;;;;;;;;;;
2022/05/01 14:32:40;;;;;;;7.9;6.8;;;;;;;;;;;;;
2022/05/01 14:35:05;;;;;;;8.3;6.6;;;;;;;;;;;;;
2022/05/01 14:37:31;;;;;;;8.8;6.4;;;;;;;;;;;;;
2022/05/01 14:39:57;;;;;;;8;6.7;;;;;;;;;;;;;
2022/05/01 14:42:22;;;;;;;11.2;7.1;;;;;;;;;;;;;
2022/05/01 14:44:49;;;;;;;9;7.2;;;;;;;;;;;;;
2022/05/01 14:47:14;;;;;;;8.7;7.4;;;;;;;;;;;;;
2022/05/01 14:49:41;;;;;;;9.4;7.2;;;;;;;;;;;;;
2022/05/01 14:52:06;;;;;;;9.2;7.3;;;;;;;;;;;;;
2022/05/01 14:54:33;;;;;;;14;7.7;;;;;;;;;;;;;
2022/05/01 14:56:58;;;;;;;12;7.7;;;;;;;;;;;;;
2022/05/01 15:06:41;;;;;;;8.8;7.1;;;;;;;;;;;;;
2022/05/01 15:09:07;;;;;;;9.1;7.1;;;;;;;;;;;;;
2022/05/01 15:11:33;;;;;;;10.4;7.1;;;;;;;;;;;;;
2022/05/01 15:13:58;;;;;;;9.5;7.3;;;;;;;;;;;;;
2022/05/01 15:16:23;;;;;;;10.5;7.8;;;;;;;;;;;;;
2022/05/01 15:18:50;;;;;;;12.4;8.1;;;;;;;;;;;;;
2022/05/01 15:21:15;;;;;;;11.4;7.3;;;;;;;;;;;;;
2022/05/01 15:23:40;;;;;;;9.8;7.4;;;;;;;;;;;;;
2022/05/01 15:26:06;;;;;;;9.3;6.4;;;;;;;;;;;;;
2022/05/01 15:28:32;;;;;;;9.1;6.6;;;;;;;;;;;;;
2022/05/01 15:30:58;;;;;;;8.5;6.2;;;;;;;;;;;;;
2022/05/01 15:35:48;;;;;;;9.4;6.1;;;;;;;;;;;;;
2022/05/01 15:38:14;;;;;;;11;7.4;;;;;;;;;;;;;
2022/05/01 15:40:40;;;;;;;11.7;7.5;;;;;;;;;;;;;
2022/05/01 15:43:04;;;;;;;11.5;8.7;;;;;;;;;;;;;
2022/05/01 15:45:49;;;;;;;10;7.2;;;;;;;;;;;;;
2022/05/01 15:47:57;;;;;;;47.9;29.3;;;;;;;;;;;;;
2022/05/01 15:55:17;;;;;;;12.3;9.4;;;;;;;;;;;;;
2022/05/01 15:57:46;;;;;;;10.7;8.2;;;;;;;;;;;;;
2022/05/01 16:00:13;;;;;;;7.8;6.3;;;;;;;;;;;;;
2022/05/01 16:02:35;;;;;;;6.4;5.4;;;;;;;;;;;;;
2022/05/01 16:05:01;;;;;;;6;5.3;;;;;;;;;;;;;
2022/05/01 16:07:26;;;;;;;7.5;5.5;;;;;;;;;;;;;
2022/05/01 16:09:54;;;;;;;6.1;5.3;;;;;;;;;;;;;
2022/05/01 16:12:19;;;;;;;8.9;5.8;;;;;;;;;;;;;
2022/05/01 16:14:47;;;;;;;7.8;6.5;;;;;;;;;;;;;
2022/05/01 16:17:12;;;;;;;7.6;6.3;;;;;;;;;;;;;
2022/05/01 16:19:37;;;;;;;7.2;6;;;;;;;;;;;;;
2022/05/01 16:22:03;;;;;;;8.2;6.3;;;;;;;;;;;;;
2022/05/01 16:24:28;;;;;;;6.1;5.3;;;;;;;;;;;;;
2022/05/01 16:26:53;;;;;;;6.7;5.2;;;;;;;;;;;;;
2022/05/01 16:29:18;;;;;;;6;5.2;;;;;;;;;;;;;
2022/05/01 16:31:43;;;;;;;6.4;5.6;;;;;;;;;;;;;
2022/05/01 16:34:09;;;;;;;6;5.2;;;;;;;;;;;;;
2022/05/01 16:36:34;;;;;;;6.2;5.6;;;;;;;;;;;;;
2022/05/01 16:39:01;;;;;;;7.4;5.3;;;;;;;;;;;;;
2022/05/01 16:41:28;;;;;;;6.9;5.4;;;;;;;;;;;;;
2022/05/01 16:43:54;;;;;;;6.2;5.6;;;;;;;;;;;;;
2022/05/01 16:46:19;;;;;;;5.6;5;;;;;;;;;;;;;
2022/05/01 16:48:45;;;;;;;5.6;5.1;;;;;;;;;;;;;
2022/05/01 16:51:10;;;;;;;6.7;5.3;;;;;;;;;;;;;
2022/05/01 16:53:35;;;;;;;6.8;5;;;;;;;;;;;;;
2022/05/01 16:56:00;;;;;;;5.6;4.8;;;;;;;;;;;;;
2022/05/01 16:58:26;;;;;;;6.5;5;;;;;;;;;;;;;
2022/05/01 17:00:53;;;;;;;7.2;5.3;;;;;;;;;;;;;
2022/05/01 17:03:18;;;;;;;7.4;6.6;;;;;;;;;;;;;
2022/05/01 17:05:43;;;;;;;8.1;6.9;;;;;;;;;;;;;
2022/05/01 17:08:08;;;;;;;9.1;7.7;;;;;;;;;;;;;
2022/05/01 17:10:33;;;;;;;8.8;7.1;;;;;;;;;;;;;
2022/05/01 17:12:59;;;;;;;8.2;7.2;;;;;;;;;;;;;
2022/05/01 17:15:25;;;;;;;9.3;8.3;;;;;;;;;;;;;
2022/05/01 17:17:51;;;;;;;11;8.9;;;;;;;;;;;;;
2022/05/01 17:20:17;;;;;;;10.8;9.7;;;;;;;;;;;;;
2022/05/01 17:22:43;;;;;;;10.4;9.3;;;;;;;;;;;;;
2022/05/01 17:25:09;;;;;;;12.2;9.8;;;;;;;;;;;;;
2022/05/01 17:27:37;;;;;;;11.1;9.2;;;;;;;;;;;;;
2022/05/01 17:30:03;;;;;;;11.3;10.1;;;;;;;;;;;;;
2022/05/01 17:32:29;;;;;;;9.9;8.8;;;;;;;;;;;;;
2022/05/01 17:34:52;;;;;;;11.2;9;;;;;;;;;;;;;
2022/05/01 17:37:19;;;;;;;10.6;9.4;;;;;;;;;;;;;
2022/05/01 17:39:44;;;;;;;12.6;9.6;;;;;;;;;;;;;
2022/05/01 17:42:10;;;;;;;10.1;9;;;;;;;;;;;;;
2022/05/01 17:44:35;;;;;;;10.8;9.4;;;;;;;;;;;;;
2022/05/01 17:47:01;;;;;;;8.7;7.8;;;;;;;;;;;;;
2022/05/01 17:49:29;;;;;;;9.4;7.3;;;;;;;;;;;;;
2022/05/01 17:51:52;;;;;;;10.9;8.5;;;;;;;;;;;;;
2022/05/01 17:54:17;;;;;;;11.1;8.3;;;;;;;;;;;;;
2022/05/01 17:56:41;;;;;;;11.4;9;;;;;;;;;;;;;
2022/05/01 17:59:08;;;;;;;11.3;9.5;;;;;;;;;;;;;
2022/05/01 18:01:35;;;;;;;10.7;8.9;;;;;;;;;;;;;
2022/05/01 18:11:16;;;;;;;12.1;8.5;;;;;;;;;;;;;
2022/05/01 18:13:41;;;;;;;10;9;;;;;;;;;;;;;
2022/05/01 18:16:08;;;;;;;11.6;9.2;;;;;;;;;;;;;
2022/05/01 18:18:33;;;;;;;9.5;8.3;;;;;;;;;;;;;
2022/05/01 18:20:59;;;;;;;9.9;8.4;;;;;;;;;;;;;
2022/05/01 18:23:24;;;;;;;10.7;8.7;;;;;;;;;;;;;
2022/05/01 18:25:50;;;;;;;10.7;9.4;;;;;;;;;;;;;
2022/05/01 18:28:17;;;;;;;10.2;9.1;;;;;;;;;;;;;
2022/05/01 18:30:42;;;;;;;9.3;8.4;;;;;;;;;;;;;
2022/05/01 18:33:10;;;;;;;9.5;8.5;;;;;;;;;;;;;
2022/05/01 18:35:36;;;;;;;11.6;8.7;;;;;;;;;;;;;
2022/05/01 18:38:00;;;;;;;10.4;8.8;;;;;;;;;;;;;
2022/05/01 18:40:26;;;;;;;10.6;8.9;;;;;;;;;;;;;
2022/05/01 18:42:51;;;;;;;11.8;9;;;;;;;;;;;;;
2022/05/01 18:45:16;;;;;;;10.8;9.2;;;;;;;;;;;;;
2022/05/01 18:47:44;;;;;;;10.9;8.4;;;;;;;;;;;;;
2022/05/01 18:50:09;;;;;;;10.7;8.1;;;;;;;;;;;;;
2022/05/01 18:52:34;;;;;;;8.6;7.6;;;;;;;;;;;;;
2022/05/01 18:54:59;;;;;;;8.2;6.6;;;;;;;;;;;;;
2022/05/01 18:57:26;;;;;;;6.1;5.4;;;;;;;;;;;;;
2022/05/01 18:59:51;;;;;;;6.2;5.4;;;;;;;;;;;;;
2022/05/01 19:02:16;;;;;;;6.1;5.1;;;;;;;;;;;;;
2022/05/01 19:04:41;;;;;;;7.2;5.5;;;;;;;;;;;;;
2022/05/01 19:07:07;;;;;;;7.4;5.6;;;;;;;;;;;;;
2022/05/01 19:09:31;;;;;;;8;5.6;;;;;;;;;;;;;
2022/05/01 19:11:56;;;;;;;6.8;5.9;;;;;;;;;;;;;
2022/05/01 19:14:21;;;;;;;6.9;5.4;;;;;;;;;;;;;
2022/05/01 19:16:47;;;;;;;7.1;6.3;;;;;;;;;;;;;
2022/05/01 19:19:12;;;;;;;8.6;6.1;;;;;;;;;;;;;
2022/05/01 19:21:37;;;;;;;7.3;5.9;;;;;;;;;;;;;
2022/05/01 19:26:27;;;;;;;7.4;5.8;;;;;;;;;;;;;
2022/05/01 19:28:53;;;;;;;8.6;5.8;;;;;;;;;;;;;
2022/05/01 19:31:19;;;;;;;7.1;6;;;;;;;;;;;;;
2022/05/01 19:33:43;;;;;;;11.9;6.3;;;;;;;;;;;;;
2022/05/01 19:36:09;;;;;;;8.3;6.2;;;;;;;;;;;;;
2022/05/01 19:38:34;;;;;;;6.8;6.1;;;;;;;;;;;;;
2022/05/01 19:40:59;;;;;;;8;6.5;;;;;;;;;;;;;
2022/05/01 19:43:26;;;;;;;8;6.8;;;;;;;;;;;;;